首页
METAR-TAF:

METAR-TAF

机场 :

沙希德·阿亚图拉·达斯特盖卜国际机场

設拉子, 伊朗

纬度: 29-32N, 经度: 052-35E, 海拔: 1486米

当前天气观测

该预报发布于18分钟前的16:00 UTC
静风
温度 7°C
湿度 70%
气压 1019 hPa
能见度10公里或以上
1500米以下无云,无积雨云

METAR: OISS 121600Z 00000KT CAVOK 07/02 Q1018 A3008

时间: 19:48 (16:18 UTC)

预报

该预报发布于4小时和28分钟前的11:50 UTC
预报有效从12日的 12点(UTC)到 13日的 18点(UTC)
风速8节,风向西
能见度10公里或以上
1500米以下无云,无积雨云
成为
从 13日的 07点(UTC)到 13日的 09点(UTC)
少量云层高于3500英尺, 积雨云.
散云层高于4000英尺
多云层高于10000英尺
短暂存在
从 13日的 08点(UTC)到 13日的 12点(UTC)
能見度: 5000
成为
从 13日的 14点(UTC)到 13日的 15点(UTC)
能見度: 8000

TAF: OISS 121150Z 1212/1318 27008KT CAVOK BECMG 1307/1309 FEW035CB SCT040 BKN100 TEMPO 1308/1312 5000 RA BECMG 1314/1315 8000 NSC

超过4000个机场的气象观测和天气预报(METAR&TAF报告)。

可查询的气象台以黄色和红色小点在地图上表示。

将鼠标移到小点上方,可查看气象台名称。

然后点击查看天气观测和预报。

如需切换地图:点击带黑十字的绿色按钮放大地图;点击带横线的绿色按钮缩小地图;或者点击绿色箭头查看邻近地区的地图。


METAR-TAF: